Wetterdaten: Woche 05.10.15 - 11.10.15 (KW41)
Datum Zeit Temp. Aussen Temp. o. S. +5cm Feuchte Auss BlattFeu 1 Luftdruck Regen Sonnenschein Regendauer Solar Windben Empfang
05.10.2015 00:00 10,7 C 10,1 C 8,5 C 93 % 12 lf 1014,6 hPa 0,0 l/m 0,00 h 0,00 h 0 W/m 4,4 km/h (1 Bft) 97,84 %
05.10.2015 01:00 10,0 C 9,3 C 8,0 C 93 % 15 lf 1014,4 hPa 0,0 l/m 0,00 h 0,00 h 0 W/m 1,9 km/h (1 Bft) 96,30 %
05.10.2015 02:00 9,4 C 8,9 C 7,7 C 94 % 15 lf 1014,4 hPa 0,0 l/m 0,00 h 0,00 h 0 W/m 4,1 km/h (1 Bft) 94,80 %
05.10.2015 03:00 9,2 C 8,9 C 7,7 C 95 % 15 lf 1014,2 hPa 0,0 l/m 0,00 h 0,00 h 0 W/m 5,9 km/h (2 Bft) 96,73 %
05.10.2015 04:00 8,9 C 8,3 C 7,2 C 96 % 15 lf 1013,7 hPa 0,0 l/m 0,00 h 0,00 h 0 W/m 4,2 km/h (1 Bft) 97,22 %
05.10.2015 05:00 8,7 C 8,5 C 7,4 C 96 % 15 lf 1013,4 hPa 0,0 l/m 0,00 h 0,00 h 0 W/m 9,7 km/h (2 Bft) 95,65 %
05.10.2015 06:00 8,8 C 8,4 C 7,5 C 97 % 15 lf 1013,3 hPa 0,0 l/m 0,00 h 0,07 h 0 W/m 9,6 km/h (2 Bft) 96,80 %
05.10.2015 07:00 9,0 C 8,8 C 7,8 C 97 % 15 lf 1013,1 hPa 0,2 l/m 0,00 h 0,03 h 10 W/m 15,3 km/h (3 Bft) 94,63 %
05.10.2015 08:00 9,5 C 9,9 C 8,8 C 98 % 15 lf 1012,7 hPa 0,0 l/m 0,90 h 0,00 h 74 W/m 18,5 km/h (3 Bft) 97,15 %
05.10.2015 09:00 10,9 C 13,6 C 11,0 C 98 % 15 lf 1013,0 hPa 0,0 l/m 0,93 h 0,00 h 174 W/m 21,6 km/h (4 Bft) 97,65 %
05.10.2015 10:00 12,4 C 15,0 C 13,1 C 98 % 5 lf 1013,0 hPa 0,0 l/m 0,87 h 0,00 h 214 W/m 20,1 km/h (4 Bft) 93,83 %
05.10.2015 11:00 14,0 C 17,8 C 15,5 C 91 % 0 lf 1012,4 hPa 0,0 l/m 0,93 h 0,00 h 353 W/m 25,3 km/h (4 Bft) 95,95 %
05.10.2015 12:00 15,8 C 19,3 C 16,6 C 82 % 0 lf 1011,9 hPa 0,0 l/m 0,80 h 0,00 h 417 W/m 28,4 km/h (4 Bft) 98,02 %
05.10.2015 13:00 17,2 C 20,8 C 16,7 C 77 % 0 lf 1011,4 hPa 0,0 l/m 0,93 h 0,00 h 462 W/m 27,0 km/h (4 Bft) 94,23 %
05.10.2015 14:00 16,8 C 17,8 C 16,2 C 79 % 0 lf 1011,1 hPa 0,0 l/m 0,20 h 0,00 h 227 W/m 20,6 km/h (4 Bft) 94,17 %
05.10.2015 15:00 17,1 C 18,2 C 16,7 C 79 % 0 lf 1010,4 hPa 0,0 l/m 0,43 h 0,00 h 227 W/m 24,5 km/h (4 Bft) 96,80 %
05.10.2015 16:00 16,7 C 17,2 C 15,9 C 81 % 0 lf 1009,6 hPa 0,0 l/m 0,00 h 0,00 h 144 W/m 27,4 km/h (4 Bft) 96,36 %
05.10.2015 17:00 16,4 C 16,5 C 15,2 C 81 % 0 lf 1008,8 hPa 0,0 l/m 0,00 h 0,00 h 60 W/m 22,5 km/h (4 Bft) 95,38 %
05.10.2015 18:00 16,0 C 16,0 C 14,7 C 83 % 0 lf 1008,3 hPa 0,0 l/m 0,00 h 0,00 h 20 W/m 17,8 km/h (3 Bft) 96,58 %
05.10.2015 19:00 15,7 C 15,6 C 14,3 C 85 % 0 lf 1008,2 hPa 0,0 l/m 0,00 h 0,00 h 0 W/m 16,7 km/h (3 Bft) 97,29 %
05.10.2015 20:00 15,4 C 15,4 C 13,9 C 86 % 0 lf 1007,7 hPa 0,0 l/m 0,00 h 0,00 h 0 W/m 18,5 km/h (3 Bft) 95,01 %
05.10.2015 21:00 15,0 C 14,3 C 13,1 C 88 % 2 lf 1007,1 hPa 0,0 l/m 0,00 h 0,70 h 0 W/m 16,6 km/h (3 Bft) 95,67 %
05.10.2015 22:00 14,5 C 13,3 C 12,2 C 91 % 13 lf 1006,6 hPa 0,8 l/m 0,00 h 1,00 h 0 W/m 13,5 km/h (3 Bft) 97,37 %
05.10.2015 23:00 14,1 C 13,3 C 12,2 C 94 % 15 lf 1005,9 hPa 1,0 l/m 0,00 h 1,00 h 0 W/m 15,0 km/h (3 Bft) 95,72 %
06.10.2015 00:00 13,8 C 13,3 C 12,2 C 95 % 15 lf 1004,9 hPa 1,0 l/m 0,00 h 0,95 h 0 W/m 20,8 km/h (4 Bft) 94,71 %
06.10.2015 01:00 13,8 C 13,4 C 12,2 C 96 % 15 lf 1003,9 hPa 2,0 l/m 0,00 h 0,67 h 0 W/m 17,4 km/h (3 Bft) 95,94 %
06.10.2015 02:00 14,0 C 13,9 C 12,6 C 97 % 15 lf 1002,5 hPa 6,6 l/m 0,00 h 1,00 h 0 W/m 19,4 km/h (3 Bft) 97,58 %
06.10.2015 03:00 14,2 C 13,9 C 12,8 C 98 % 15 lf 1001,6 hPa 1,0 l/m 0,00 h 0,30 h 0 W/m 24,3 km/h (4 Bft) 95,59 %
06.10.2015 04:00 14,2 C 14,1 C 12,8 C 98 % 15 lf 1001,0 hPa 0,4 l/m 0,00 h 0,60 h 0 W/m 20,3 km/h (4 Bft) 96,00 %
06.10.2015 05:00 14,4 C 14,4 C 13,2 C 99 % 15 lf 1000,8 hPa 0,2 l/m 0,00 h 0,37 h 0 W/m 14,2 km/h (3 Bft) 96,65 %
06.10.2015 06:00 14,8 C 14,7 C 13,3 C 99 % 15 lf 1001,1 hPa 0,0 l/m 0,00 h 0,10 h 0 W/m 19,0 km/h (3 Bft) 97,52 %
06.10.2015 07:00 14,7 C 14,4 C 13,1 C 99 % 15 lf 1001,4 hPa 0,0 l/m 0,00 h 0,07 h 0 W/m 17,6 km/h (3 Bft) 94,24 %
06.10.2015 08:00 14,2 C 14,2 C 12,8 C 99 % 15 lf 1002,0 hPa 0,0 l/m 0,00 h 0,00 h 15 W/m 18,3 km/h (3 Bft) 96,01 %
06.10.2015 09:00 14,5 C 14,9 C 13,4 C 99 % 14 lf 1002,1 hPa 0,0 l/m 0,00 h 0,00 h 66 W/m 15,3 km/h (3 Bft) 96,84 %
06.10.2015 10:00 15,2 C 16,1 C 14,2 C 99 % 1 lf 1002,5 hPa 0,0 l/m 0,00 h 0,00 h 116 W/m 9,9 km/h (2 Bft) 96,84 %
06.10.2015 11:00 16,3 C 19,5 C 15,6 C 99 % 0 lf 1002,7 hPa 0,0 l/m 0,37 h 0,00 h 248 W/m 9,2 km/h (2 Bft) 93,45 %
06.10.2015 12:00 18,2 C 22,1 C 18,0 C 93 % 0 lf 1002,6 hPa 0,0 l/m 0,63 h 0,00 h 282 W/m 10,6 km/h (2 Bft) 97,39 %
06.10.2015 13:00 19,4 C 21,2 C 18,4 C 87 % 0 lf 1002,3 hPa 0,0 l/m 0,13 h 0,00 h 213 W/m 12,4 km/h (3 Bft) 95,80 %
06.10.2015 14:00 20,1 C 22,0 C 19,4 C 85 % 0 lf 1001,7 hPa 0,0 l/m 0,30 h 0,00 h 228 W/m 11,8 km/h (2 Bft) 95,66 %
06.10.2015 15:00 20,8 C 21,7 C 19,3 C 83 % 0 lf 1001,2 hPa 0,0 l/m 0,37 h 0,43 h 195 W/m 15,3 km/h (3 Bft) 96,51 %
06.10.2015 16:00 20,1 C 19,5 C 17,5 C 85 % 1 lf 1000,9 hPa 0,0 l/m 0,00 h 0,77 h 66 W/m 10,8 km/h (2 Bft) 96,44 %
06.10.2015 17:00 19,3 C 18,2 C 16,4 C 88 % 2 lf 1001,3 hPa 0,0 l/m 0,00 h 0,67 h 33 W/m 10,0 km/h (2 Bft) 95,51 %
06.10.2015 18:00 18,5 C 18,0 C 16,3 C 92 % 0 lf 1001,8 hPa 0,2 l/m 0,20 h 0,00 h 26 W/m 8,2 km/h (2 Bft) 96,65 %
06.10.2015 19:00 17,6 C 16,9 C 15,4 C 93 % 1 lf 1002,3 hPa 0,0 l/m 0,00 h 0,00 h 7 W/m 9,9 km/h (2 Bft) 95,30 %
06.10.2015 20:00 16,8 C 16,2 C 14,9 C 95 % 3 lf 1002,8 hPa 0,0 l/m 0,00 h 0,00 h 0 W/m 9,4 km/h (2 Bft) 97,72 %
06.10.2015 21:00 16,1 C 15,7 C 14,3 C 96 % 3 lf 1003,1 hPa 0,0 l/m 0,00 h 0,00 h 0 W/m 10,8 km/h (2 Bft) 96,58 %
06.10.2015 22:00 15,5 C 15,5 C 13,9 C 96 % 1 lf 1003,3 hPa 0,0 l/m 0,00 h 0,00 h 0 W/m 12,1 km/h (2 Bft) 94,59 %
06.10.2015 23:00 15,4 C 15,6 C 13,9 C 96 % 1 lf 1003,5 hPa 0,0 l/m 0,00 h 0,00 h 0 W/m 12,3 km/h (3 Bft) 97,37 %
07.10.2015 00:00 15,2 C 15,1 C 13,8 C 96 % 1 lf 1003,9 hPa 0,0 l/m 0,00 h 0,00 h 0 W/m 10,6 km/h (2 Bft) 97,92 %
07.10.2015 01:00 14,9 C 14,5 C 13,2 C 96 % 2 lf 1004,0 hPa 0,0 l/m 0,00 h 0,00 h 0 W/m 8,1 km/h (2 Bft) 93,45 %
07.10.2015 02:00 14,7 C 14,9 C 13,2 C 97 % 1 lf 1004,4 hPa 0,0 l/m 0,00 h 0,00 h 0 W/m 9,3 km/h (2 Bft) 96,94 %
07.10.2015 03:00 14,4 C 14,0 C 12,3 C 96 % 3 lf 1004,7 hPa 0,0 l/m 0,00 h 0,00 h 0 W/m 6,9 km/h (2 Bft) 96,65 %
07.10.2015 04:00 13,8 C 13,5 C 11,7 C 96 % 14 lf 1005,1 hPa 0,0 l/m 0,00 h 0,00 h 0 W/m 7,9 km/h (2 Bft) 93,16 %
07.10.2015 05:00 13,5 C 13,5 C 11,7 C 96 % 15 lf 1005,5 hPa 0,0 l/m 0,00 h 0,00 h 0 W/m 9,0 km/h (2 Bft) 95,44 %
07.10.2015 06:00 13,3 C 13,0 C 11,2 C 96 % 15 lf 1005,9 hPa 0,0 l/m 0,00 h 0,00 h 0 W/m 6,0 km/h (2 Bft) 95,80 %
07.10.2015 07:00 13,0 C 13,1 C 11,3 C 97 % 15 lf 1006,5 hPa 0,0 l/m 0,00 h 0,00 h 5 W/m 6,7 km/h (2 Bft) 95,86 %
07.10.2015 08:00 13,8 C 14,6 C 13,0 C 98 % 11 lf 1007,2 hPa 0,0 l/m 0,00 h 0,00 h 28 W/m 9,7 km/h (2 Bft) 97,43 %
07.10.2015 09:00 14,4 C 15,6 C 14,0 C 98 % 0 lf 1008,0 hPa 0,0 l/m 0,00 h 0,00 h 56 W/m 12,5 km/h (3 Bft) 94,66 %
07.10.2015 10:00 15,3 C 18,8 C 15,6 C 96 % 10 lf 1008,6 hPa 0,0 l/m 0,57 h 0,23 h 271 W/m 19,0 km/h (3 Bft) 96,44 %
07.10.2015 11:00 16,9 C 22,0 C 17,9 C 88 % 0 lf 1008,9 hPa 0,0 l/m 0,90 h 0,00 h 335 W/m 21,9 km/h (4 Bft) 97,22 %
07.10.2015 12:00 17,4 C 19,1 C 17,0 C 84 % 0 lf 1009,4 hPa 0,0 l/m 0,23 h 0,00 h 240 W/m 21,4 km/h (4 Bft) 93,71 %
07.10.2015 13:00 16,8 C 17,5 C 15,8 C 85 % 0 lf 1010,0 hPa 0,0 l/m 0,00 h 0,00 h 129 W/m 18,6 km/h (3 Bft) 96,65 %
07.10.2015 14:00 17,0 C 18,4 C 16,4 C 85 % 0 lf 1010,5 hPa 0,0 l/m 0,37 h 0,00 h 223 W/m 22,7 km/h (4 Bft) 97,93 %
07.10.2015 15:00 17,2 C 18,7 C 16,2 C 84 % 0 lf 1010,9 hPa 0,0 l/m 0,37 h 0,03 h 223 W/m 25,8 km/h (4 Bft) 93,09 %
07.10.2015 16:00 16,2 C 16,8 C 15,1 C 87 % 0 lf 1011,4 hPa 0,0 l/m 0,10 h 0,00 h 121 W/m 21,2 km/h (4 Bft) 97,44 %
07.10.2015 17:00 15,8 C 16,1 C 14,5 C 86 % 0 lf 1011,8 hPa 0,0 l/m 0,00 h 0,00 h 52 W/m 23,5 km/h (4 Bft) 97,37 %
07.10.2015 18:00 14,8 C 14,4 C 13,2 C 88 % 0 lf 1012,5 hPa 0,0 l/m 0,00 h 0,00 h 21 W/m 23,2 km/h (4 Bft) 95,40 %
07.10.2015 19:00 14,2 C 14,4 C 12,9 C 91 % 0 lf 1013,1 hPa 0,0 l/m 0,00 h 0,00 h 0 W/m 17,6 km/h (3 Bft) 95,16 %
07.10.2015 20:00 14,1 C 13,9 C 12,8 C 91 % 0 lf 1013,8 hPa 0,0 l/m 0,00 h 0,00 h 0 W/m 17,8 km/h (3 Bft) 97,58 %
07.10.2015 21:00 13,8 C 13,9 C 12,8 C 93 % 0 lf 1014,4 hPa 0,0 l/m 0,00 h 0,00 h 0 W/m 18,4 km/h (3 Bft) 94,84 %
07.10.2015 22:00 13,7 C 13,9 C 12,8 C 93 % 0 lf 1014,9 hPa 0,0 l/m 0,00 h 0,00 h 0 W/m 14,5 km/h (3 Bft) 98,58 %
07.10.2015 23:00 13,7 C 13,9 C 12,7 C 92 % 0 lf 1015,1 hPa 0,0 l/m 0,00 h 0,00 h 0 W/m 15,8 km/h (3 Bft) 93,88 %
08.10.2015 00:00 13,4 C 13,4 C 12,2 C 91 % 0 lf 1015,4 hPa 0,0 l/m 0,00 h 0,00 h 0 W/m 19,0 km/h (3 Bft) 92,42 %
08.10.2015 01:00 13,2 C 13,3 C 12,2 C 90 % 0 lf 1015,5 hPa 0,0 l/m 0,00 h 0,00 h 0 W/m 17,6 km/h (3 Bft) 97,89 %
08.10.2015 02:00 13,0 C 13,0 C 11,7 C 90 % 0 lf 1015,6 hPa 0,0 l/m 0,00 h 0,00 h 0 W/m 13,1 km/h (3 Bft) 95,02 %
08.10.2015 03:00 12,8 C 12,3 C 11,2 C 92 % 12 lf 1015,9 hPa 0,4 l/m 0,00 h 0,73 h 0 W/m 11,0 km/h (2 Bft) 95,33 %
08.10.2015 04:00 12,4 C 11,8 C 11,1 C 95 % 15 lf 1015,9 hPa 0,0 l/m 0,00 h 0,12 h 0 W/m 11,3 km/h (2 Bft) 97,62 %
08.10.2015 05:00 12,3 C 11,8 C 11,1 C 96 % 15 lf 1016,2 hPa 0,0 l/m 0,00 h 0,50 h 0 W/m 11,9 km/h (2 Bft) 95,47 %
08.10.2015 06:00 12,1 C 11,7 C 11,1 C 97 % 15 lf 1016,6 hPa 0,6 l/m 0,00 h 1,00 h 0 W/m 10,7 km/h (2 Bft) 96,08 %
08.10.2015 07:00 12,1 C 11,8 C 11,0 C 97 % 15 lf 1016,9 hPa 0,6 l/m 0,00 h 1,00 h 0 W/m 9,0 km/h (2 Bft) 97,08 %
08.10.2015 08:00 12,1 C 12,2 C 11,1 C 98 % 15 lf 1017,5 hPa 1,2 l/m 0,00 h 1,00 h 10 W/m 9,1 km/h (2 Bft) 94,81 %
08.10.2015 09:00 12,3 C 12,3 C 11,3 C 98 % 15 lf 1018,2 hPa 1,2 l/m 0,00 h 1,00 h 37 W/m 10,3 km/h (2 Bft) 98,15 %
08.10.2015 10:00 12,5 C 12,6 C 11,6 C 98 % 15 lf 1018,8 hPa 0,8 l/m 0,00 h 0,90 h 71 W/m 8,6 km/h (2 Bft) 95,03 %
08.10.2015 11:00 13,1 C 14,0 C 12,6 C 99 % 15 lf 1019,2 hPa 0,0 l/m 0,00 h 0,00 h 170 W/m 10,9 km/h (2 Bft) 94,82 %
08.10.2015 12:00 13,6 C 14,4 C 12,8 C 98 % 8 lf 1019,6 hPa 0,0 l/m 0,00 h 0,00 h 157 W/m 12,6 km/h (3 Bft) 97,76 %
08.10.2015 13:00 13,7 C 13,8 C 12,3 C 97 % 8 lf 1019,9 hPa 0,0 l/m 0,00 h 0,07 h 112 W/m 10,6 km/h (2 Bft) 97,15 %
08.10.2015 14:00 13,5 C 13,5 C 11,9 C 96 % 15 lf 1020,1 hPa 0,0 l/m 0,00 h 0,27 h 92 W/m 7,1 km/h (2 Bft) 93,81 %
08.10.2015 15:00 13,4 C 14,1 C 12,0 C 95 % 4 lf 1020,4 hPa 0,0 l/m 0,00 h 0,00 h 94 W/m 6,6 km/h (2 Bft) 97,58 %
08.10.2015 16:00 13,5 C 13,5 C 11,8 C 95 % 11 lf 1020,5 hPa 0,0 l/m 0,00 h 0,17 h 56 W/m 5,0 km/h (1 Bft) 96,49 %
08.10.2015 17:00 13,1 C 12,8 C 11,5 C 95 % 15 lf 1020,6 hPa 0,0 l/m 0,00 h 0,00 h 25 W/m 6,2 km/h (2 Bft) 96,80 %
08.10.2015 18:00 12,8 C 12,7 C 11,3 C 95 % 10 lf 1020,7 hPa 0,0 l/m 0,00 h 0,00 h 12 W/m 5,1 km/h (1 Bft) 94,59 %
08.10.2015 19:00 12,5 C 12,2 C 11,0 C 95 % 1 lf 1021,1 hPa 0,0 l/m 0,00 h 0,00 h 0 W/m 2,0 km/h (1 Bft) 97,16 %
08.10.2015 20:00 12,2 C 12,1 C 10,8 C 95 % 1 lf 1021,2 hPa 0,0 l/m 0,00 h 0,00 h 0 W/m 2,1 km/h (1 Bft) 96,59 %
08.10.2015 21:00 12,1 C 12,1 C 10,7 C 95 % 1 lf 1021,4 hPa 0,0 l/m 0,00 h 0,00 h 0 W/m 2,0 km/h (1 Bft) 96,23 %
08.10.2015 22:00 12,0 C 11,9 C 10,6 C 96 % 1 lf 1021,6 hPa 0,0 l/m 0,00 h 0,03 h 0 W/m 2,8 km/h (1 Bft) 96,44 %
08.10.2015 23:00 11,9 C 11,7 C 10,6 C 96 % 2 lf 1021,6 hPa 0,0 l/m 0,00 h 0,00 h 0 W/m 1,2 km/h (1 Bft) 94,88 %
09.10.2015 00:00 11,7 C 11,1 C 10,0 C 96 % 3 lf 1021,5 hPa 0,0 l/m 0,00 h 0,00 h 0 W/m 3,5 km/h (1 Bft) 97,26 %
09.10.2015 01:00 11,4 C 11,1 C 10,0 C 96 % 4 lf 1021,4 hPa 0,0 l/m 0,00 h 0,00 h 0 W/m 2,9 km/h (1 Bft) 97,94 %
09.10.2015 02:00 11,3 C 11,1 C 10,0 C 96 % 5 lf 1021,4 hPa 0,0 l/m 0,00 h 0,00 h 0 W/m 3,0 km/h (1 Bft) 94,66 %
09.10.2015 03:00 11,3 C 10,9 C 9,8 C 96 % 9 lf 1021,5 hPa 0,0 l/m 0,00 h 0,00 h 0 W/m 1,5 km/h (1 Bft) 95,66 %
09.10.2015 04:00 10,9 C 10,1 C 9,2 C 96 % 15 lf 1021,4 hPa 0,0 l/m 0,00 h 0,00 h 0 W/m 0,6 km/h (0 Bft) 98,43 %
09.10.2015 05:00 10,4 C 10,0 C 9,3 C 96 % 15 lf 1021,2 hPa 0,0 l/m 0,00 h 0,00 h 0 W/m 0,2 km/h (0 Bft) 94,67 %
09.10.2015 06:00 10,1 C 9,5 C 8,9 C 96 % 15 lf 1021,2 hPa 0,0 l/m 0,00 h 0,00 h 0 W/m 1,1 km/h (1 Bft) 96,24 %
09.10.2015 07:00 9,9 C 9,2 C 8,8 C 96 % 15 lf 1021,2 hPa 0,0 l/m 0,00 h 0,00 h 6 W/m 1,6 km/h (1 Bft) 97,37 %
09.10.2015 08:00 9,6 C 9,1 C 8,3 C 96 % 15 lf 1021,4 hPa 0,0 l/m 0,00 h 0,00 h 26 W/m 2,1 km/h (1 Bft) 93,72 %
09.10.2015 09:00 10,0 C 10,9 C 9,7 C 97 % 15 lf 1021,8 hPa 0,0 l/m 0,00 h 0,00 h 78 W/m 1,7 km/h (1 Bft) 98,19 %
09.10.2015 10:00 11,1 C 14,9 C 11,0 C 98 % 8 lf 1021,9 hPa 0,0 l/m 0,27 h 0,00 h 175 W/m 5,7 km/h (1 Bft) 95,58 %
09.10.2015 11:00 12,5 C 23,2 C 14,2 C 98 % 0 lf 1022,0 hPa 0,0 l/m 1,00 h 0,00 h 397 W/m 8,0 km/h (2 Bft) 94,52 %
09.10.2015 12:00 14,3 C 20,1 C 14,4 C 83 % 0 lf 1021,9 hPa 0,0 l/m 0,83 h 0,00 h 313 W/m 10,3 km/h (2 Bft) 98,58 %
09.10.2015 13:00 14,9 C 18,6 C 14,4 C 80 % 0 lf 1021,7 hPa 0,0 l/m 0,47 h 0,00 h 285 W/m 10,6 km/h (2 Bft) 96,24 %
09.10.2015 14:00 15,4 C 20,2 C 14,7 C 78 % 0 lf 1021,3 hPa 0,0 l/m 0,97 h 0,00 h 325 W/m 12,4 km/h (3 Bft) 94,52 %
09.10.2015 15:00 15,3 C 18,9 C 14,3 C 77 % 0 lf 1021,1 hPa 0,0 l/m 0,70 h 0,03 h 232 W/m 9,7 km/h (2 Bft) 97,62 %
09.10.2015 16:00 15,6 C 20,7 C 14,1 C 77 % 0 lf 1020,8 hPa 0,0 l/m 0,83 h 0,00 h 237 W/m 11,5 km/h (2 Bft) 96,66 %
09.10.2015 17:00 15,3 C 16,7 C 13,8 C 78 % 0 lf 1020,8 hPa 0,0 l/m 0,50 h 0,13 h 100 W/m 10,3 km/h (2 Bft) 93,16 %
09.10.2015 18:00 14,9 C 14,8 C 13,2 C 79 % 0 lf 1020,7 hPa 0,0 l/m 0,00 h 0,03 h 16 W/m 7,6 km/h (2 Bft) 98,83 %
09.10.2015 19:00 14,3 C 13,6 C 12,2 C 82 % 0 lf 1020,9 hPa 0,0 l/m 0,00 h 0,13 h 0 W/m 4,1 km/h (1 Bft) 95,59 %
09.10.2015 20:00 13,7 C 13,1 C 12,0 C 85 % 0 lf 1021,1 hPa 0,0 l/m 0,00 h 0,03 h 0 W/m 4,1 km/h (1 Bft) 94,59 %
09.10.2015 21:00 13,2 C 12,6 C 11,6 C 88 % 0 lf 1021,1 hPa 0,0 l/m 0,00 h 0,00 h 0 W/m 4,8 km/h (1 Bft) 96,94 %
09.10.2015 22:00 13,1 C 13,0 C 11,9 C 91 % 0 lf 1021,0 hPa 0,0 l/m 0,00 h 0,00 h 0 W/m 8,5 km/h (2 Bft) 96,37 %
09.10.2015 23:00 13,2 C 13,1 C 11,8 C 93 % 2 lf 1020,8 hPa 0,0 l/m 0,00 h 0,03 h 0 W/m 7,8 km/h (2 Bft) 96,23 %
10.10.2015 00:00 13,1 C 12,5 C 11,5 C 94 % 1 lf 1020,6 hPa 0,0 l/m 0,00 h 0,00 h 0 W/m 7,1 km/h (2 Bft) 96,66 %
10.10.2015 01:00 12,9 C 12,8 C 11,7 C 95 % 1 lf 1020,5 hPa 0,0 l/m 0,00 h 0,07 h 0 W/m 8,4 km/h (2 Bft) 93,82 %
10.10.2015 02:00 12,6 C 12,4 C 11,3 C 95 % 1 lf 1020,5 hPa 0,0 l/m 0,00 h 0,00 h 0 W/m 9,3 km/h (2 Bft) 98,08 %
10.10.2015 03:00 12,3 C 12,5 C 11,4 C 94 % 0 lf 1020,5 hPa 0,0 l/m 0,00 h 0,00 h 0 W/m 12,6 km/h (3 Bft) 96,87 %
10.10.2015 04:00 12,4 C 12,8 C 11,7 C 94 % 0 lf 1020,3 hPa 0,0 l/m 0,00 h 0,00 h 0 W/m 14,3 km/h (3 Bft) 93,31 %
10.10.2015 05:00 12,3 C 12,4 C 11,1 C 93 % 0 lf 1020,0 hPa 0,0 l/m 0,00 h 0,00 h 0 W/m 14,4 km/h (3 Bft) 97,44 %
10.10.2015 06:00 12,2 C 12,2 C 11,1 C 92 % 0 lf 1020,0 hPa 0,0 l/m 0,00 h 0,00 h 0 W/m 15,6 km/h (3 Bft) 97,87 %
10.10.2015 07:00 11,9 C 12,1 C 10,8 C 93 % 0 lf 1019,9 hPa 0,0 l/m 0,00 h 0,00 h 0 W/m 17,8 km/h (3 Bft) 93,81 %
10.10.2015 08:00 11,7 C 11,8 C 10,6 C 92 % 0 lf 1020,0 hPa 0,0 l/m 0,00 h 0,00 h 9 W/m 15,8 km/h (3 Bft) 95,80 %
10.10.2015 09:00 11,7 C 12,2 C 10,9 C 92 % 0 lf 1020,1 hPa 0,0 l/m 0,00 h 0,00 h 40 W/m 15,3 km/h (3 Bft) 97,02 %
10.10.2015 10:00 11,7 C 12,2 C 11,0 C 90 % 0 lf 1020,1 hPa 0,0 l/m 0,00 h 0,00 h 60 W/m 15,9 km/h (3 Bft) 95,01 %
10.10.2015 11:00 11,6 C 12,2 C 11,1 C 89 % 0 lf 1020,0 hPa 0,0 l/m 0,00 h 0,00 h 93 W/m 17,8 km/h (3 Bft) 97,58 %
10.10.2015 12:00 11,8 C 12,8 C 11,1 C 87 % 0 lf 1019,8 hPa 0,0 l/m 0,00 h 0,00 h 111 W/m 15,9 km/h (3 Bft) 94,92 %
10.10.2015 13:00 11,9 C 12,9 C 11,3 C 86 % 0 lf 1019,2 hPa 0,0 l/m 0,00 h 0,00 h 113 W/m 16,2 km/h (3 Bft) 95,72 %
10.10.2015 14:00 12,2 C 13,4 C 11,7 C 86 % 0 lf 1018,7 hPa 0,0 l/m 0,00 h 0,00 h 118 W/m 16,8 km/h (3 Bft) 97,86 %
10.10.2015 15:00 13,1 C 18,1 C 12,4 C 84 % 0 lf 1018,3 hPa 0,0 l/m 0,73 h 0,00 h 306 W/m 13,3 km/h (3 Bft) 95,09 %
10.10.2015 16:00 14,2 C 18,0 C 12,6 C 79 % 0 lf 1017,8 hPa 0,0 l/m 0,63 h 0,00 h 191 W/m 13,3 km/h (3 Bft) 96,01 %
10.10.2015 17:00 13,9 C 15,0 C 12,1 C 78 % 0 lf 1017,8 hPa 0,0 l/m 0,30 h 0,00 h 97 W/m 18,0 km/h (3 Bft) 97,01 %
10.10.2015 18:00 12,6 C 11,7 C 10,3 C 80 % 0 lf 1017,7 hPa 0,0 l/m 0,00 h 0,00 h 23 W/m 13,5 km/h (3 Bft) 94,53 %
10.10.2015 19:00 11,2 C 9,6 C 8,4 C 82 % 0 lf 1017,9 hPa 0,0 l/m 0,00 h 0,00 h 0 W/m 9,1 km/h (2 Bft) 95,81 %
10.10.2015 20:00 9,8 C 8,7 C 7,7 C 84 % 0 lf 1017,9 hPa 0,0 l/m 0,00 h 0,00 h 0 W/m 9,2 km/h (2 Bft) 97,57 %
10.10.2015 21:00 9,2 C 8,8 C 7,8 C 85 % 0 lf 1017,8 hPa 0,0 l/m 0,00 h 0,00 h 0 W/m 14,8 km/h (3 Bft) 95,88 %
10.10.2015 22:00 8,8 C 8,1 C 7,1 C 87 % 0 lf 1017,9 hPa 0,0 l/m 0,00 h 0,00 h 0 W/m 11,9 km/h (2 Bft) 94,88 %
10.10.2015 23:00 8,0 C 7,5 C 6,7 C 88 % 0 lf 1017,7 hPa 0,0 l/m 0,00 h 0,00 h 0 W/m 13,9 km/h (3 Bft) 96,30 %
11.10.2015 00:00 7,4 C 7,1 C 6,1 C 89 % 0 lf 1017,6 hPa 0,0 l/m 0,00 h 0,00 h 0 W/m 14,8 km/h (3 Bft) 95,92 %
11.10.2015 01:00 6,9 C 6,6 C 5,5 C 90 % 0 lf 1017,5 hPa 0,0 l/m 0,00 h 0,00 h 0 W/m 14,4 km/h (3 Bft) 97,08 %
11.10.2015 02:00 6,2 C 5,7 C 4,7 C 91 % 0 lf 1017,5 hPa 0,0 l/m 0,00 h 0,00 h 0 W/m 12,6 km/h (3 Bft) 96,15 %
11.10.2015 03:00 5,5 C 5,1 C 4,3 C 92 % 1 lf 1017,3 hPa 0,0 l/m 0,00 h 0,00 h 0 W/m 12,2 km/h (2 Bft) 94,31 %
11.10.2015 04:00 5,0 C 4,3 C 3,9 C 92 % 0 lf 1017,1 hPa 0,0 l/m 0,00 h 0,00 h 0 W/m 12,3 km/h (3 Bft) 97,29 %
11.10.2015 05:00 4,6 C 3,9 C 3,4 C 92 % 0 lf 1017,2 hPa 0,0 l/m 0,00 h 0,00 h 0 W/m 10,0 km/h (2 Bft) 98,43 %
11.10.2015 06:00 4,3 C 3,9 C 3,3 C 92 % 0 lf 1017,2 hPa 0,0 l/m 0,00 h 0,00 h 0 W/m 10,8 km/h (2 Bft) 93,38 %
11.10.2015 07:00 4,2 C 4,3 C 3,7 C 93 % 0 lf 1017,1 hPa 0,0 l/m 0,00 h 0,00 h 6 W/m 15,2 km/h (3 Bft) 95,94 %
11.10.2015 08:00 4,4 C 4,9 C 3,9 C 92 % 0 lf 1017,4 hPa 0,0 l/m 0,77 h 0,00 h 51 W/m 14,0 km/h (3 Bft) 96,44 %
11.10.2015 09:00 4,9 C 9,5 C 5,0 C 88 % 0 lf 1017,6 hPa 0,0 l/m 1,00 h 0,00 h 192 W/m 17,5 km/h (3 Bft) 95,87 %
11.10.2015 10:00 7,0 C 15,3 C 8,9 C 80 % 0 lf 1017,5 hPa 0,0 l/m 1,00 h 0,00 h 333 W/m 19,4 km/h (3 Bft) 96,29 %
11.10.2015 11:00 9,0 C 17,8 C 9,4 C 73 % 0 lf 1017,5 hPa 0,0 l/m 1,00 h 0,00 h 436 W/m 19,2 km/h (3 Bft) 96,16 %
11.10.2015 12:00 10,4 C 20,1 C 11,9 C 70 % 0 lf 1017,2 hPa 0,0 l/m 0,97 h 0,00 h 499 W/m 18,2 km/h (3 Bft) 96,03 %
11.10.2015 13:00 11,9 C 21,2 C 10,3 C 66 % 0 lf 1016,9 hPa 0,0 l/m 1,00 h 0,00 h 505 W/m 20,4 km/h (4 Bft) 96,37 %
11.10.2015 14:00 13,1 C 21,0 C 11,0 C 63 % 0 lf 1016,3 hPa 0,0 l/m 1,00 h 0,00 h 463 W/m 20,3 km/h (4 Bft) 96,65 %
11.10.2015 15:00 13,7 C 20,0 C 11,1 C 61 % 0 lf 1016,0 hPa 0,0 l/m 1,00 h 0,00 h 395 W/m 23,3 km/h (4 Bft) 94,97 %
11.10.2015 16:00 13,5 C 18,9 C 11,0 C 59 % 0 lf 1015,8 hPa 0,0 l/m 1,00 h 0,00 h 270 W/m 22,6 km/h (4 Bft) 98,22 %
11.10.2015 17:00 12,4 C 13,9 C 10,1 C 60 % 0 lf 1016,1 hPa 0,0 l/m 0,67 h 0,00 h 108 W/m 20,8 km/h (4 Bft) 94,80 %
11.10.2015 18:00 10,9 C 10,2 C 8,7 C 63 % 0 lf 1016,3 hPa 0,0 l/m 0,00 h 0,00 h 18 W/m 16,8 km/h (3 Bft) 97,43 %
11.10.2015 19:00 9,4 C 8,6 C 7,4 C 66 % 0 lf 1016,5 hPa 0,0 l/m 0,00 h 0,00 h 0 W/m 17,3 km/h (3 Bft) 95,30 %
11.10.2015 20:00 8,3 C 7,9 C 6,7 C 70 % 0 lf 1016,8 hPa 0,0 l/m 0,00 h 0,00 h 0 W/m 17,5 km/h (3 Bft) 97,65 %
11.10.2015 21:00 7,5 C 7,1 C 5,9 C 73 % 0 lf 1017,0 hPa 0,0 l/m 0,00 h 0,00 h 0 W/m 15,9 km/h (3 Bft) 94,58 %
11.10.2015 22:00 6,7 C 6,4 C 5,0 C 75 % 0 lf 1017,1 hPa 0,0 l/m 0,00 h 0,00 h 0 W/m 13,7 km/h (3 Bft) 95,52 %
11.10.2015 23:00 5,8 C 5,3 C 4,1 C 78 % 0 lf 1017,2 hPa 0,0 l/m 0,00 h 0,00 h 0 W/m 13,1 km/h (3 Bft) 96,30 %
Min-Datum _ 11.10.15 11.10.15 11.10.15 11.10.15 05.10.15 06.10.15 - - - - 05.10.15 07.10.15
_ Min-Zeit 06:50 04:52 05:08 16:00 10:24 05:28 - - - - 01:20 04:05
Minimum _ 4,1 C 3,9 C 3,3 C 58 % 0 lf 1000,7 hPa - - - - 0,0 km/h (0 Bft) 4,76 %
Max-Datum _ 06.10.15 09.10.15 06.10.15 06.10.15 05.10.15 09.10.15 06.10.15 05.10.15 05.10.15 07.10.15 07.10.15 05.10.15
_ Max-Zeit 15:28 11:44 14:24 05:02 00:44 11:16 02:20 08:00 06:34 12:08 18:18 00:22
Maximum _ 21,0 C 28,3 C 20,0 C 99 % 15 lf 1022,1 hPa 6,6 l/m 0,03 h 0,03 h 699 W/m 43,9 km/h
W-SW (6 Bft)
100,00 %
Durchschnitt _ 12,8 C 13,6 C 11,6 C 90 % 5 lf 1014,1 hPa #18,2 l/m #27:10 h #16:18 h 159 W/m 12,8 km/h (3 Bft) 96,09 %
© 2015 W. Hausmann